createdAt,value
2019-02-02T00:01:02.121Z,0
2019-02-02T00:02:12.231Z,0
2019-02-02T00:03:22.039Z,0
2019-02-02T00:04:32.159Z,0
2019-02-02T00:05:42.376Z,0
2019-02-02T00:06:52.514Z,0
2019-02-02T00:08:02.389Z,0
2019-02-02T00:09:12.742Z,0
2019-02-02T00:10:22.810Z,0
2019-02-02T00:11:33.567Z,0
2019-02-02T00:12:43.746Z,0
2019-02-02T00:13:53.831Z,0
2019-02-02T00:15:03.900Z,0
2019-02-02T00:16:14.259Z,0
2019-02-02T00:17:24.353Z,0
2019-02-02T00:18:34.520Z,0
2019-02-02T00:19:44.809Z,0
2019-02-02T00:20:54.923Z,0
2019-02-02T00:22:05.178Z,0
2019-02-02T00:23:15.318Z,0
2019-02-02T00:24:25.535Z,0
2019-02-02T00:25:35.636Z,0
2019-02-02T00:26:45.943Z,0
2019-02-02T00:27:56.288Z,0
2019-02-02T00:29:07.688Z,0
2019-02-02T00:30:17.935Z,0
2019-02-02T00:31:28.035Z,0
2019-02-02T00:32:37.901Z,0
2019-02-02T00:33:48.006Z,0
2019-02-02T00:34:58.106Z,0
2019-02-02T00:36:09.717Z,0
2019-02-02T00:37:19.832Z,0
2019-02-02T00:38:29.764Z,0
2019-02-02T00:39:39.846Z,0
2019-02-02T00:40:49.942Z,0
2019-02-02T00:42:00.324Z,0
2019-02-02T00:43:10.418Z,0
2019-02-02T00:44:20.523Z,0
2019-02-02T00:45:30.714Z,0
2019-02-02T00:46:40.795Z,0
2019-02-02T00:47:50.887Z,0
2019-02-02T00:49:03.982Z,0
2019-02-02T00:50:14.049Z,0
2019-02-02T00:51:24.172Z,0
2019-02-02T00:52:34.067Z,0
2019-02-02T00:53:44.245Z,0
2019-02-02T00:54:54.140Z,0
2019-02-02T00:56:04.326Z,0
2019-02-02T00:57:14.433Z,0
2019-02-02T00:58:24.614Z,0
2019-02-02T00:59:34.738Z,0
2019-02-02T01:00:44.842Z,0
2019-02-02T01:01:54.964Z,0
2019-02-02T01:03:04.810Z,0
2019-02-02T01:04:14.897Z,0
2019-02-02T01:05:24.778Z,0
2019-02-02T01:06:34.910Z,0
2019-02-02T01:07:45.062Z,0
2019-02-02T01:08:55.197Z,0
2019-02-02T01:10:05.174Z,0
2019-02-02T01:11:15.417Z,0
2019-02-02T01:12:25.494Z,0
2019-02-02T01:13:35.326Z,0
2019-02-02T01:14:45.408Z,0
2019-02-02T01:15:55.621Z,0
2019-02-02T01:17:08.322Z,0
2019-02-02T01:18:18.406Z,0
2019-02-02T01:19:28.497Z,0
2019-02-02T01:20:38.606Z,0
2019-02-02T01:21:49.013Z,0
2019-02-02T01:22:59.161Z,0
2019-02-02T01:24:09.249Z,0
2019-02-02T01:25:19.098Z,0
2019-02-02T01:26:29.480Z,0
2019-02-02T01:27:39.690Z,0
2019-02-02T01:28:49.827Z,0
2019-02-02T01:29:59.711Z,0
2019-02-02T01:31:10.060Z,0
2019-02-02T01:32:21.317Z,0
2019-02-02T01:33:30.906Z,0
2019-02-02T01:34:41.059Z,0
2019-02-02T01:35:50.882Z,0
2019-02-02T01:37:02.570Z,0
2019-02-02T01:38:12.420Z,0
2019-02-02T01:39:22.505Z,0
2019-02-02T01:40:32.641Z,0
2019-02-02T01:41:42.725Z,0
2019-02-02T01:42:52.821Z,0
2019-02-02T01:44:03.914Z,0
2019-02-02T01:45:14.009Z,0
2019-02-02T01:46:23.888Z,0
2019-02-02T01:47:33.972Z,0
2019-02-02T01:48:44.057Z,0
2019-02-02T01:49:54.134Z,0
2019-02-02T01:51:03.955Z,0
2019-02-02T01:52:14.343Z,0
2019-02-02T01:53:24.450Z,0
2019-02-02T01:54:34.624Z,0
2019-02-02T01:55:46.278Z,0
2019-02-02T01:56:56.355Z,0
2019-02-02T01:58:18.735Z,0
2019-02-02T01:59:29.178Z,0
2019-02-02T02:00:39.412Z,0
2019-02-02T02:01:49.507Z,0
2019-02-02T02:02:59.679Z,0
2019-02-02T02:04:09.834Z,0
2019-02-02T02:05:19.928Z,0
2019-02-02T02:06:30.043Z,0
2019-02-02T02:07:40.225Z,0
2019-02-02T02:08:50.544Z,0
2019-02-02T02:10:00.616Z,0
2019-02-02T02:11:10.733Z,0
2019-02-02T02:12:20.555Z,0
2019-02-02T02:13:30.642Z,0
2019-02-02T02:14:40.797Z,0
2019-02-02T02:15:50.894Z,0
2019-02-02T02:17:03.599Z,0
2019-02-02T02:18:13.424Z,0
2019-02-02T02:19:23.517Z,0
2019-02-02T02:20:33.608Z,0
2019-02-02T02:21:43.687Z,0
2019-02-02T02:22:53.756Z,0
2019-02-02T02:24:05.091Z,0
2019-02-02T02:25:15.201Z,0
2019-02-02T02:26:25.385Z,0
2019-02-02T02:27:35.269Z,0
2019-02-02T02:28:45.335Z,0
2019-02-02T02:29:55.431Z,0
2019-02-02T02:31:07.416Z,0
2019-02-02T02:32:17.588Z,0
2019-02-02T02:33:26.904Z,0
2019-02-02T02:34:37.029Z,0
2019-02-02T02:35:47.141Z,0
2019-02-02T02:36:57.284Z,0
2019-02-02T02:38:08.120Z,0
2019-02-02T02:39:18.544Z,0
2019-02-02T02:40:28.689Z,0
2019-02-02T02:41:38.988Z,0
2019-02-02T02:42:49.067Z,0
2019-02-02T02:43:58.961Z,0
2019-02-02T02:45:09.086Z,0
2019-02-02T02:46:19.167Z,0
2019-02-02T02:47:29.297Z,0
2019-02-02T02:48:39.493Z,0
2019-02-02T02:49:49.586Z,0
2019-02-02T02:50:59.697Z,0
2019-02-02T02:52:09.802Z,0
2019-02-02T02:53:19.874Z,0
2019-02-02T02:54:30.007Z,0
2019-02-02T02:55:40.001Z,0
2019-02-02T02:56:50.102Z,0
2019-02-02T02:57:59.995Z,0
2019-02-02T02:59:10.839Z,0
2019-02-02T03:00:21.347Z,0
2019-02-02T03:01:31.274Z,0
2019-02-02T03:02:41.368Z,0
2019-02-02T03:34:59.636Z,0
2019-02-02T03:36:11.265Z,0
2019-02-02T03:37:21.374Z,0
2019-02-02T03:38:31.462Z,0
2019-02-02T03:39:41.801Z,0
2019-02-02T03:40:51.947Z,0
2019-02-02T03:42:01.511Z,0
2019-02-02T03:43:11.632Z,0
2019-02-02T03:44:21.468Z,0
2019-02-02T03:45:31.573Z,0
2019-02-02T03:46:41.796Z,0
2019-02-02T03:47:52.219Z,0
2019-02-02T03:49:03.098Z,0
2019-02-02T03:50:13.315Z,0
2019-02-02T03:51:23.438Z,0
2019-02-02T03:52:33.912Z,0
2019-02-02T03:53:46.358Z,0
2019-02-02T03:54:56.548Z,0
2019-02-02T03:56:06.379Z,0
2019-02-02T03:57:16.663Z,0
2019-02-02T03:58:27.104Z,0
2019-02-02T03:59:37.238Z,0
2019-02-02T04:00:47.492Z,0
2019-02-02T04:01:57.566Z,0
2019-02-02T04:03:07.634Z,0
2019-02-02T04:04:17.481Z,0
2019-02-02T04:05:27.573Z,0
2019-02-02T04:06:37.648Z,0
2019-02-02T04:07:47.972Z,0
2019-02-02T04:08:58.078Z,0
2019-02-02T04:10:10.949Z,0
2019-02-02T04:11:21.027Z,0
2019-02-02T04:12:31.336Z,0
2019-02-02T04:13:41.461Z,0
2019-02-02T04:14:51.531Z,0
2019-02-02T04:16:01.716Z,0
2019-02-02T04:17:11.815Z,0
2019-02-02T04:18:21.868Z,0
2019-02-02T04:19:31.928Z,0
2019-02-02T04:20:41.726Z,0
2019-02-02T04:21:51.805Z,0
2019-02-02T04:23:02.110Z,0
2019-02-02T04:24:12.173Z,0
2019-02-02T04:25:22.484Z,0
2019-02-02T04:26:32.742Z,0
2019-02-02T04:27:42.616Z,0
2019-02-02T04:28:52.687Z,0
2019-02-02T04:30:05.655Z,0
2019-02-02T04:31:15.759Z,0
2019-02-02T04:32:25.588Z,0
2019-02-02T04:33:35.669Z,0
2019-02-02T04:34:45.507Z,0
2019-02-02T04:35:55.575Z,0
2019-02-02T04:37:06.030Z,0
2019-02-02T04:38:16.093Z,0
2019-02-02T04:39:25.894Z,0
2019-02-02T04:40:35.974Z,0
2019-02-02T04:41:46.061Z,0
2019-02-02T04:42:56.129Z,0
2019-02-02T04:44:09.561Z,0
2019-02-02T04:45:20.676Z,0
2019-02-02T04:46:30.756Z,0
2019-02-02T04:47:40.568Z,0
2019-02-02T04:48:50.640Z,0
2019-02-02T04:50:00.822Z,0
2019-02-02T04:51:10.885Z,0
2019-02-02T04:52:20.933Z,0
2019-02-02T04:53:30.998Z,0
2019-02-02T04:54:40.552Z,0
2019-02-02T04:55:50.607Z,0
2019-02-02T04:57:00.418Z,0
2019-02-02T04:58:10.226Z,0
2019-02-02T04:59:31.407Z,0
2019-02-02T05:00:41.295Z,0
2019-02-02T05:01:51.356Z,0
2019-02-02T05:03:01.502Z,0
2019-02-02T05:04:11.072Z,0
2019-02-02T05:05:21.407Z,0
2019-02-02T05:06:31.483Z,0
2019-02-02T05:07:41.600Z,0
2019-02-02T05:08:51.152Z,0
2019-02-02T05:10:03.229Z,0
2019-02-02T05:11:13.301Z,0
2019-02-02T05:12:23.125Z,0
2019-02-02T05:13:32.923Z,0
2019-02-02T05:14:42.783Z,0
2019-02-02T05:15:53.081Z,0
2019-02-02T05:17:03.960Z,0
2019-02-02T05:18:14.021Z,0
2019-02-02T05:19:23.907Z,0
2019-02-02T05:20:34.043Z,0
2019-02-02T05:21:43.873Z,0
2019-02-02T05:22:54.194Z,0
2019-02-02T05:24:04.024Z,0
2019-02-02T05:25:13.940Z,0
2019-02-02T05:26:24.051Z,0
2019-02-02T05:27:33.600Z,0
2019-02-02T05:28:43.655Z,0
2019-02-02T05:29:53.477Z,0
2019-02-02T05:31:03.686Z,0
2019-02-02T05:32:14.059Z,0
2019-02-02T05:33:23.871Z,0
2019-02-02T05:34:33.946Z,0
2019-02-02T05:35:43.997Z,0
2019-02-02T05:36:54.163Z,0
2019-02-02T05:38:05.431Z,0
2019-02-02T05:39:15.505Z,0
2019-02-02T05:40:25.693Z,0
2019-02-02T05:41:35.780Z,0
2019-02-02T05:42:46.092Z,0
2019-02-02T05:43:56.287Z,0
2019-02-02T05:45:06.360Z,0
2019-02-02T05:46:16.518Z,0
2019-02-02T05:47:26.057Z,0
2019-02-02T05:48:35.988Z,0
2019-02-02T05:49:45.955Z,0
2019-02-02T05:50:57.986Z,0
2019-02-02T05:52:08.064Z,0
2019-02-02T05:53:17.865Z,0
2019-02-02T05:54:28.175Z,0
2019-02-02T05:55:38.435Z,0
2019-02-02T05:56:48.518Z,0
2019-02-02T05:57:58.760Z,0
2019-02-02T05:59:10.597Z,0
2019-02-02T06:00:21.528Z,0
2019-02-02T06:01:34.834Z,0
2019-02-02T06:02:44.974Z,4
2019-02-02T06:03:55.131Z,4
2019-02-02T06:05:05.237Z,4
2019-02-02T06:06:15.042Z,4
2019-02-02T06:07:24.582Z,4
2019-02-02T06:08:34.994Z,8
2019-02-02T06:09:45.064Z,8
2019-02-02T06:10:54.887Z,8
2019-02-02T06:12:05.209Z,8
2019-02-02T06:13:15.273Z,16
2019-02-02T06:14:25.327Z,16
2019-02-02T06:15:36.047Z,16
2019-02-02T06:16:46.119Z,16
2019-02-02T06:17:56.020Z,24
2019-02-02T06:19:06.154Z,24
2019-02-02T06:20:16.518Z,24
2019-02-02T06:21:26.621Z,28
2019-02-02T06:22:36.681Z,28
2019-02-02T06:23:46.982Z,32
2019-02-02T06:24:59.982Z,32
2019-02-02T06:26:10.041Z,36
2019-02-02T06:27:20.352Z,32
2019-02-02T06:28:31.021Z,32
2019-02-02T06:29:40.837Z,32
2019-02-02T06:30:51.021Z,36
2019-02-02T06:32:11.387Z,36
2019-02-02T06:33:22.218Z,36
2019-02-02T06:34:32.064Z,40
2019-02-02T06:35:42.143Z,36
2019-02-02T06:36:52.209Z,44
2019-02-02T06:38:02.302Z,44
2019-02-02T06:39:13.015Z,48
2019-02-02T06:40:23.085Z,52
2019-02-02T06:41:33.217Z,52
2019-02-02T06:42:43.163Z,60
2019-02-02T06:43:53.227Z,64
2019-02-02T06:45:03.042Z,64
2019-02-02T06:46:12.869Z,72
2019-02-02T06:47:23.072Z,76
2019-02-02T06:48:33.132Z,84
2019-02-02T06:49:42.943Z,88
2019-02-02T06:50:52.797Z,96
2019-02-02T06:52:02.672Z,104
2019-02-02T06:53:12.512Z,116
2019-02-02T06:54:22.658Z,120
2019-02-02T06:55:32.990Z,128
2019-02-02T06:56:43.077Z,136
2019-02-02T06:57:53.284Z,148
2019-02-02T06:59:05.178Z,156
2019-02-02T07:00:26.090Z,168
2019-02-02T07:01:36.602Z,180
2019-02-02T07:02:46.418Z,192
2019-02-02T07:03:56.484Z,208
2019-02-02T07:05:06.743Z,220
2019-02-02T07:06:16.862Z,236
2019-02-02T07:07:27.018Z,256
2019-02-02T07:08:37.092Z,276
2019-02-02T07:09:47.215Z,300
2019-02-02T07:10:57.294Z,316
2019-02-02T07:12:07.252Z,332
2019-02-02T07:13:17.561Z,344
2019-02-02T07:14:27.146Z,356
2019-02-02T07:15:37.212Z,360
2019-02-02T07:16:47.065Z,364
2019-02-02T07:17:57.145Z,368
2019-02-02T07:19:06.958Z,372
2019-02-02T07:20:17.108Z,384
2019-02-02T07:21:27.346Z,388
2019-02-02T07:22:37.490Z,400
2019-02-02T07:23:47.567Z,408
2019-02-02T07:24:57.649Z,448
2019-02-02T07:26:08.596Z,508
2019-02-02T07:27:18.964Z,576
2019-02-02T07:28:29.047Z,628
2019-02-02T07:29:38.881Z,692
2019-02-02T07:30:48.766Z,752
2019-02-02T07:31:58.868Z,804
2019-02-02T07:33:08.960Z,840
2019-02-02T07:34:18.786Z,872
2019-02-02T07:35:28.868Z,888
2019-02-02T07:36:38.974Z,904
2019-02-02T07:37:49.149Z,908
2019-02-02T07:38:59.277Z,900
2019-02-02T07:40:10.606Z,896
2019-02-02T07:41:20.664Z,884
2019-02-02T07:42:30.541Z,868
2019-02-02T07:43:40.647Z,856
2019-02-02T07:44:50.848Z,852
2019-02-02T07:46:13.801Z,836
2019-02-02T07:47:24.648Z,828
2019-02-02T07:48:34.731Z,832
2019-02-02T07:49:44.539Z,820
2019-02-02T07:50:54.608Z,836
2019-02-02T07:52:04.439Z,864
2019-02-02T07:53:14.515Z,900
2019-02-02T07:54:24.339Z,932
2019-02-02T07:55:33.982Z,956
2019-02-02T07:56:44.073Z,1004
2019-02-02T07:57:54.151Z,1072
2019-02-02T07:59:04.367Z,1168
2019-02-02T08:00:15.901Z,1268
2019-02-02T08:01:26.205Z,1368
2019-02-02T08:02:36.287Z,1436
2019-02-02T08:03:46.352Z,1520
2019-02-02T08:04:56.440Z,1580
2019-02-02T08:06:06.572Z,1632
2019-02-02T08:07:17.232Z,1716
2019-02-02T08:08:27.285Z,1796
2019-02-02T08:09:37.346Z,1812
2019-02-02T08:10:47.309Z,1800
2019-02-02T08:11:57.445Z,1820
2019-02-02T08:13:07.500Z,1792
2019-02-02T08:14:18.919Z,1732
2019-02-02T08:15:29.090Z,1696
2019-02-02T08:16:39.366Z,1680
2019-02-02T08:17:49.540Z,1692
2019-02-02T08:18:59.620Z,1700
2019-02-02T08:20:09.719Z,1676
2019-02-02T08:21:19.816Z,1580
2019-02-02T08:22:29.654Z,1460
2019-02-02T08:23:39.738Z,1376
2019-02-02T08:24:49.593Z,1336
2019-02-02T08:26:02.677Z,1356
2019-02-02T08:27:12.868Z,1340
2019-02-02T08:28:24.350Z,1300
2019-02-02T08:29:34.500Z,1228
2019-02-02T08:30:56.888Z,1264
2019-02-02T08:32:06.716Z,1296
2019-02-02T08:33:16.864Z,1256
2019-02-02T08:34:26.933Z,1264
2019-02-02T08:35:36.908Z,1236
2019-02-02T08:36:47.029Z,1188
2019-02-02T08:37:56.603Z,1124
2019-02-02T08:39:07.662Z,1076
2019-02-02T08:40:17.777Z,1044
2019-02-02T08:41:28.020Z,1068
2019-02-02T08:42:38.135Z,1200
2019-02-02T08:43:48.219Z,1260
2019-02-02T08:44:58.476Z,1252
2019-02-02T08:46:08.575Z,1296
2019-02-02T08:47:18.678Z,1340
2019-02-02T08:48:29.028Z,1392
2019-02-02T08:49:40.358Z,1388
2019-02-02T08:50:50.642Z,1476
2019-02-02T08:52:00.761Z,1540
2019-02-02T08:53:10.526Z,1740
2019-02-02T08:54:21.273Z,1924
2019-02-02T08:55:31.862Z,2172
2019-02-02T08:56:42.151Z,2472
2019-02-02T08:57:51.844Z,2668
2019-02-02T08:59:02.065Z,2520
2019-02-02T09:00:13.384Z,2468
2019-02-02T09:01:23.663Z,3036
2019-02-02T09:02:33.814Z,3340
2019-02-02T09:03:44.026Z,3484
2019-02-02T09:04:54.374Z,3776
2019-02-02T09:06:04.682Z,3960
2019-02-02T09:07:14.856Z,4120
2019-02-02T09:08:24.917Z,4324
2019-02-02T09:09:35.003Z,4404
2019-02-02T09:10:45.077Z,4536
2019-02-02T09:11:56.191Z,4260
2019-02-02T09:13:06.703Z,3772
2019-02-02T09:14:16.531Z,3564
2019-02-02T09:15:26.606Z,3476
2019-02-02T09:16:36.684Z,3488
2019-02-02T09:17:48.244Z,3512
2019-02-02T09:18:58.439Z,3528
2019-02-02T09:20:08.558Z,3560
2019-02-02T09:21:18.668Z,3548
2019-02-02T09:22:28.754Z,3500
2019-02-02T09:23:38.881Z,3516
2019-02-02T09:24:51.773Z,3396
2019-02-02T09:26:02.309Z,3428
2019-02-02T09:27:12.179Z,3468
2019-02-02T09:28:22.315Z,3468
2019-02-02T09:29:32.469Z,3488
2019-02-02T09:30:42.336Z,3460
2019-02-02T09:31:52.671Z,3604
2019-02-02T09:33:02.964Z,3684
2019-02-02T09:34:13.053Z,4360
2019-02-02T09:35:23.205Z,3812
2019-02-02T09:36:33.300Z,3900
2019-02-02T09:37:43.386Z,3932
2019-02-02T09:38:53.460Z,3392
2019-02-02T09:40:04.304Z,3328
2019-02-02T09:41:14.453Z,3400
2019-02-02T09:42:24.310Z,3268
2019-02-02T09:43:34.183Z,3484
2019-02-02T09:44:47.438Z,3088
2019-02-02T09:45:57.521Z,2856
2019-02-02T09:47:07.421Z,2240
2019-02-02T09:48:17.509Z,2008
2019-02-02T09:49:27.497Z,1956
2019-02-02T09:50:37.579Z,1992
2019-02-02T09:51:47.645Z,2092
2019-02-02T09:52:57.746Z,2156
2019-02-02T09:54:09.140Z,2200
2019-02-02T09:55:19.433Z,2160
2019-02-02T09:56:29.535Z,2092
2019-02-02T09:57:41.827Z,2044
2019-02-02T09:58:52.001Z,2028
2019-02-02T10:00:02.481Z,2028
2019-02-02T10:01:12.592Z,2008
2019-02-02T10:02:22.691Z,2076
2019-02-02T10:03:35.331Z,1984
2019-02-02T10:04:45.418Z,1940
2019-02-02T10:05:55.619Z,1948
2019-02-02T10:07:07.857Z,1948
2019-02-02T10:08:17.950Z,1908
2019-02-02T10:09:28.033Z,1852
2019-02-02T10:10:38.170Z,1820
2019-02-02T10:11:48.351Z,1836
2019-02-02T10:12:58.196Z,1880
2019-02-02T10:14:08.296Z,1908
2019-02-02T10:15:18.373Z,1908
2019-02-02T10:16:28.182Z,1916
2019-02-02T10:17:38.358Z,1972
2019-02-02T10:18:48.654Z,2088
2019-02-02T10:19:58.796Z,2296
2019-02-02T10:21:11.555Z,2492
2019-02-02T10:22:21.647Z,2704
2019-02-02T10:23:31.831Z,2608
2019-02-02T10:24:42.060Z,2656
2019-02-02T10:25:52.142Z,2692
2019-02-02T10:27:01.980Z,2664
2019-02-02T10:28:14.062Z,2640
2019-02-02T10:29:24.451Z,2644
2019-02-02T10:30:34.540Z,2632
2019-02-02T10:31:47.167Z,2616
2019-02-02T10:32:57.232Z,2616
2019-02-02T10:34:07.364Z,2708
2019-02-02T10:35:20.190Z,2864
2019-02-02T10:36:30.318Z,3284
2019-02-02T10:37:40.523Z,3360
2019-02-02T10:38:50.705Z,2996
2019-02-02T10:40:01.486Z,3016
2019-02-02T10:41:11.298Z,3064
2019-02-02T10:42:21.675Z,3244
2019-02-02T10:43:32.146Z,3332
2019-02-02T10:44:42.001Z,4276
2019-02-02T10:45:51.850Z,4432
2019-02-02T10:47:01.681Z,5380
2019-02-02T10:48:11.741Z,4524
2019-02-02T10:49:22.003Z,5212
2019-02-02T10:50:32.075Z,4220
2019-02-02T10:51:42.176Z,5732
2019-02-02T10:52:52.251Z,5740
2019-02-02T10:54:05.475Z,6136
2019-02-02T10:55:15.593Z,4876
2019-02-02T10:56:25.686Z,4460
2019-02-02T10:57:35.521Z,4600
2019-02-02T10:58:45.708Z,5456
2019-02-02T10:59:56.369Z,4920
2019-02-02T11:01:06.505Z,4336
2019-02-02T11:02:17.784Z,6272
2019-02-02T11:03:27.727Z,5564
2019-02-02T11:04:38.135Z,6624
2019-02-02T11:05:47.930Z,6716
2019-02-02T11:06:58.526Z,6868
2019-02-02T11:08:11.293Z,6836
2019-02-02T11:09:21.883Z,4480
2019-02-02T11:10:32.433Z,4212
2019-02-02T11:11:42.782Z,5800
2019-02-02T11:12:53.342Z,6628
2019-02-02T11:14:03.508Z,6620
2019-02-02T11:15:13.991Z,6888
2019-02-02T11:16:24.300Z,6652
2019-02-02T11:17:34.617Z,6652
2019-02-02T11:18:45.063Z,5184
2019-02-02T11:19:55.509Z,5372
2019-02-02T11:21:06.245Z,4440
2019-02-02T11:22:16.778Z,4784
2019-02-02T11:23:27.180Z,4844
2019-02-02T11:24:37.194Z,5832
2019-02-02T11:25:47.785Z,7072
2019-02-02T11:26:58.310Z,4628
2019-02-02T11:28:10.469Z,5044
2019-02-02T11:29:21.068Z,5216
2019-02-02T11:30:32.289Z,5040
2019-02-02T11:31:42.420Z,8424
2019-02-02T11:32:52.478Z,5628
2019-02-02T11:34:02.306Z,5540
2019-02-02T11:35:12.384Z,8164
2019-02-02T11:36:22.234Z,8152
2019-02-02T11:37:32.376Z,7984
2019-02-02T11:38:42.457Z,7972
2019-02-02T11:39:53.080Z,7992
2019-02-02T11:41:03.203Z,7732
2019-02-02T11:42:13.287Z,7496
2019-02-02T11:43:23.374Z,3812
2019-02-02T11:44:33.230Z,3676
2019-02-02T11:45:43.348Z,3728
2019-02-02T11:46:53.475Z,3640
2019-02-02T11:48:04.325Z,3348
2019-02-02T11:49:14.392Z,3276
2019-02-02T11:50:25.282Z,3212
2019-02-02T11:51:35.581Z,3244
2019-02-02T11:52:45.656Z,3260
2019-02-02T11:53:55.785Z,3156
2019-02-02T11:55:06.754Z,3096
2019-02-02T11:56:16.869Z,3008
2019-02-02T11:57:27.014Z,2852
2019-02-02T11:58:37.176Z,2760
2019-02-02T11:59:47.599Z,2840
2019-02-02T12:00:57.441Z,2980
2019-02-02T12:02:19.111Z,3312
2019-02-02T12:03:29.193Z,3612
2019-02-02T12:04:39.278Z,3692
2019-02-02T12:05:49.753Z,3340
2019-02-02T12:06:59.835Z,3152
2019-02-02T12:08:10.514Z,3012
2019-02-02T12:09:20.649Z,2888
2019-02-02T12:10:30.716Z,2876
2019-02-02T12:11:40.796Z,2916
2019-02-02T12:12:50.894Z,2952
2019-02-02T12:14:02.325Z,2988
2019-02-02T12:15:12.538Z,2996
2019-02-02T12:16:22.131Z,3004
2019-02-02T12:17:32.277Z,2960
2019-02-02T12:18:42.394Z,2980
2019-02-02T12:19:52.523Z,3028
2019-02-02T12:21:02.758Z,3100
2019-02-02T12:22:12.634Z,3220
2019-02-02T12:23:22.715Z,3368
2019-02-02T12:24:32.535Z,3484
2019-02-02T12:25:42.362Z,3488
2019-02-02T12:26:52.448Z,3392
2019-02-02T12:28:02.816Z,3288
2019-02-02T12:29:12.896Z,3204
2019-02-02T12:30:22.987Z,3172
2019-02-02T12:31:33.074Z,3168
2019-02-02T12:32:43.395Z,3168
2019-02-02T12:33:53.458Z,3152
2019-02-02T12:35:04.674Z,3108
2019-02-02T12:36:14.964Z,3056
2019-02-02T12:37:25.045Z,2980
2019-02-02T12:38:35.134Z,2824
2019-02-02T12:39:45.205Z,2636
2019-02-02T12:40:55.342Z,2500
2019-02-02T12:42:07.388Z,2456
2019-02-02T12:43:19.043Z,2556
2019-02-02T12:44:29.108Z,2688
2019-02-02T12:45:39.451Z,2792
2019-02-02T12:46:49.574Z,2924
2019-02-02T12:47:59.665Z,3064
2019-02-02T12:49:11.005Z,3148
2019-02-02T12:50:21.085Z,3360
2019-02-02T12:51:31.176Z,3580
2019-02-02T12:52:41.392Z,3536
2019-02-02T12:53:51.198Z,3424
2019-02-02T12:55:03.583Z,3336
2019-02-02T12:56:13.789Z,3364
2019-02-02T12:57:23.940Z,3652
2019-02-02T12:58:34.011Z,4084
2019-02-02T12:59:45.385Z,3588
2019-02-02T13:00:55.240Z,3344
2019-02-02T13:02:05.329Z,3352
2019-02-02T13:03:15.202Z,3544
2019-02-02T13:04:25.399Z,3132
2019-02-02T13:05:35.477Z,3292
2019-02-02T13:07:01.695Z,3136
2019-02-02T13:08:12.729Z,2872
2019-02-02T13:09:22.613Z,2884
2019-02-02T13:10:32.465Z,4060
2019-02-02T13:11:42.659Z,4704
2019-02-02T13:12:52.753Z,3240
2019-02-02T13:14:02.705Z,2944
2019-02-02T13:15:12.826Z,3112
2019-02-02T13:16:22.683Z,4496
2019-02-02T13:17:32.809Z,5540
2019-02-02T13:18:42.992Z,5728
2019-02-02T13:19:53.074Z,5340
2019-02-02T13:21:03.399Z,5600
2019-02-02T13:22:13.508Z,5736
2019-02-02T13:23:23.577Z,5648
2019-02-02T13:24:33.693Z,5500
2019-02-02T13:25:43.781Z,4776
2019-02-02T13:26:54.441Z,5452
2019-02-02T13:28:06.151Z,5516
2019-02-02T13:29:15.982Z,5596
2019-02-02T13:30:26.137Z,4788
2019-02-02T13:31:36.337Z,5880
2019-02-02T13:32:57.251Z,5992
2019-02-02T13:34:07.349Z,6052
2019-02-02T13:35:17.489Z,6020
2019-02-02T13:36:27.572Z,5864
2019-02-02T13:37:37.668Z,5728
2019-02-02T13:38:47.734Z,5616
2019-02-02T13:39:58.068Z,5516
2019-02-02T13:41:08.269Z,5420
2019-02-02T13:42:18.490Z,5256
2019-02-02T13:43:28.577Z,5300
2019-02-02T13:44:38.899Z,5272
2019-02-02T13:45:48.718Z,5220
2019-02-02T13:46:58.887Z,4752
2019-02-02T13:48:10.186Z,4452
2019-02-02T13:49:20.454Z,4168
2019-02-02T13:50:30.649Z,3348
2019-02-02T13:51:40.750Z,2768
2019-02-02T13:52:50.855Z,2164
2019-02-02T13:54:01.174Z,2108
2019-02-02T13:55:11.272Z,2068
2019-02-02T13:56:21.361Z,2124
2019-02-02T13:57:31.447Z,2168
2019-02-02T13:58:41.575Z,2228
2019-02-02T13:59:51.408Z,2308
2019-02-02T14:01:01.238Z,2096
2019-02-02T14:02:11.322Z,1864
2019-02-02T14:03:21.418Z,1608
2019-02-02T14:04:31.502Z,1456
2019-02-02T14:05:41.590Z,1316
2019-02-02T14:06:51.686Z,1252
2019-02-02T14:08:05.349Z,1220
2019-02-02T14:09:15.427Z,1240
2019-02-02T14:10:25.354Z,1280
2019-02-02T14:11:35.420Z,1328
2019-02-02T14:12:45.484Z,1364
2019-02-02T14:13:55.402Z,1388
2019-02-02T14:15:05.636Z,1428
2019-02-02T14:16:15.743Z,1488
2019-02-02T14:17:25.815Z,1824
2019-02-02T14:18:35.992Z,2184
2019-02-02T14:19:46.011Z,2072
2019-02-02T14:20:55.878Z,1820
2019-02-02T14:22:06.268Z,1572
2019-02-02T14:23:16.363Z,1204
2019-02-02T14:24:26.446Z,1108
2019-02-02T14:25:37.035Z,1064
2019-02-02T14:26:47.128Z,1048
2019-02-02T14:27:57.230Z,1056
2019-02-02T14:29:07.309Z,1072
2019-02-02T14:30:17.405Z,1084
2019-02-02T14:31:27.492Z,1100
2019-02-02T14:32:37.305Z,1124
2019-02-02T14:33:47.381Z,1140
2019-02-02T14:34:57.217Z,1160
2019-02-02T14:36:09.334Z,1232
2019-02-02T14:37:19.416Z,1860
2019-02-02T14:38:29.485Z,2044
2019-02-02T14:39:39.842Z,1976
2019-02-02T14:40:49.494Z,1900
2019-02-02T14:41:59.344Z,2008
2019-02-02T14:43:09.434Z,1860
2019-02-02T14:44:19.279Z,1860
2019-02-02T14:45:32.485Z,1664
2019-02-02T14:46:42.482Z,1756
2019-02-02T14:47:55.400Z,1708
2019-02-02T14:49:07.870Z,1680
2019-02-02T14:50:21.238Z,1624
2019-02-02T14:51:31.083Z,1704
2019-02-02T14:52:41.172Z,1568
2019-02-02T14:53:51.363Z,1536
2019-02-02T14:55:01.199Z,1500
2019-02-02T14:56:11.373Z,1544
2019-02-02T14:57:21.443Z,1580
2019-02-02T14:58:31.281Z,1608
2019-02-02T14:59:41.374Z,1616
2019-02-02T15:00:53.826Z,1568
2019-02-02T15:02:04.075Z,1536
2019-02-02T15:03:25.118Z,1504
2019-02-02T15:04:35.775Z,1472
2019-02-02T15:05:50.247Z,1456
2019-02-02T15:07:03.183Z,1492
2019-02-02T15:08:13.275Z,1480
2019-02-02T15:09:26.055Z,1424
2019-02-02T15:10:36.330Z,1284
2019-02-02T15:11:46.626Z,1208
2019-02-02T15:12:56.760Z,1144
2019-02-02T15:14:06.618Z,1072
2019-02-02T15:15:16.658Z,1004
2019-02-02T15:16:26.752Z,960
2019-02-02T15:17:36.816Z,904
2019-02-02T15:18:46.985Z,828
2019-02-02T15:19:57.259Z,796
2019-02-02T15:21:07.323Z,760
2019-02-02T15:22:17.138Z,744
2019-02-02T15:23:27.241Z,732
2019-02-02T15:24:37.074Z,712
2019-02-02T15:25:47.197Z,676
2019-02-02T15:26:56.846Z,636
2019-02-02T15:28:07.792Z,592
2019-02-02T15:29:17.908Z,548
2019-02-02T15:30:27.459Z,504
2019-02-02T15:31:37.028Z,464
2019-02-02T15:32:47.132Z,424
2019-02-02T15:33:57.248Z,392
2019-02-02T15:35:07.546Z,356
2019-02-02T15:36:17.627Z,324
2019-02-02T15:37:27.917Z,300
2019-02-02T15:38:37.744Z,280
2019-02-02T15:39:48.037Z,256
2019-02-02T15:41:06.465Z,232
2019-02-02T15:42:16.765Z,216
2019-02-02T15:43:29.602Z,196
2019-02-02T15:44:39.702Z,176
2019-02-02T15:45:49.805Z,164
2019-02-02T15:46:59.870Z,148
2019-02-02T15:48:10.534Z,132
2019-02-02T15:49:20.663Z,120
2019-02-02T15:50:30.743Z,104
2019-02-02T15:51:47.538Z,88
2019-02-02T15:52:57.686Z,80
2019-02-02T15:54:07.778Z,72
2019-02-02T15:55:18.113Z,60
2019-02-02T15:56:28.264Z,52
2019-02-02T15:57:38.357Z,44
2019-02-02T15:58:48.198Z,40
2019-02-02T15:59:58.279Z,32
2019-02-02T16:01:08.346Z,32
2019-02-02T16:02:18.500Z,24
2019-02-02T16:03:28.926Z,20
2019-02-02T16:04:39.027Z,20
2019-02-02T16:05:49.149Z,16
2019-02-02T16:06:59.510Z,12
2019-02-02T16:08:09.615Z,8
2019-02-02T16:09:19.751Z,8
2019-02-02T16:10:29.868Z,8
2019-02-02T16:11:39.948Z,8
2019-02-02T16:12:49.784Z,8
2019-02-02T16:13:59.890Z,4
2019-02-02T16:15:10.057Z,4
2019-02-02T16:16:20.180Z,4
2019-02-02T16:17:30.658Z,0
2019-02-02T16:18:39.970Z,4
2019-02-02T16:19:50.051Z,4
2019-02-02T16:21:00.293Z,4
2019-02-02T16:22:10.369Z,4
2019-02-02T16:23:20.498Z,0
2019-02-02T16:24:30.636Z,0
2019-02-02T16:25:41.231Z,0
2019-02-02T16:26:53.234Z,0
2019-02-02T16:28:03.333Z,0
2019-02-02T16:29:13.204Z,0
2019-02-02T16:30:23.422Z,0
2019-02-02T16:31:33.528Z,0
2019-02-02T16:32:43.339Z,0
2019-02-02T16:34:04.135Z,0
2019-02-02T16:35:14.225Z,0
2019-02-02T16:36:24.316Z,0
2019-02-02T16:37:36.236Z,0
2019-02-02T16:38:46.566Z,0
2019-02-02T16:39:56.525Z,0
2019-02-02T16:41:06.589Z,0
2019-02-02T16:42:16.667Z,0
2019-02-02T16:43:26.497Z,0
2019-02-02T16:44:36.586Z,0
2019-02-02T16:45:46.682Z,0
2019-02-02T16:46:56.747Z,0
2019-02-02T16:48:06.816Z,0
2019-02-02T16:49:16.962Z,0
2019-02-02T16:50:27.138Z,0
2019-02-02T16:51:37.217Z,0
2019-02-02T16:52:47.441Z,0
2019-02-02T16:53:57.521Z,0
2019-02-02T16:55:10.411Z,0